Time;durP1;ratioP1;P1;durP2;ratioP2;P2;SDS_P1;SDS_P2;PMS_P1;PMS_P2;Temp;Humidity;BMP_temperature;BMP_pressure;BME280_temperature;BME280_humidity;BME280_pressure;Samples;Min_cycle;Max_cycle;Signal;HPM_P1;HPM_P2
2023/03/25 00:02:04;;;;;;;0.40;0.40;;;7.90;99.90;;;;;;4987906;28;20237;-70
2023/03/25 00:04:34;;;;;;;0.45;0.30;;;7.90;99.90;;;;;;4987815;28;20605;-71
2023/03/25 00:07:03;;;;;;;0.30;0.20;;;7.70;99.90;;;;;;4987974;28;20338;-72
2023/03/25 00:09:32;;;;;;;0.75;0.32;;;7.60;99.90;;;;;;4988231;28;20324;-70
2023/03/25 00:11:59;;;;;;;0.30;0.20;;;7.60;99.90;;;;;;4987872;28;20236;-71
2023/03/25 00:14:27;;;;;;;0.30;0.20;;;7.60;99.90;;;;;;4987938;28;20202;-70
2023/03/25 00:16:55;;;;;;;0.73;0.47;;;7.60;99.90;;;;;;4987395;28;20213;-71
2023/03/25 00:19:22;;;;;;;0.30;0.30;;;7.60;99.90;;;;;;4991194;28;20190;-70
2023/03/25 00:21:51;;;;;;;0.75;0.40;;;7.50;99.90;;;;;;4991677;28;20257;-72
2023/03/25 00:24:19;;;;;;;0.47;0.30;;;7.40;99.90;;;;;;4991826;28;20668;-70
2023/03/25 00:26:47;;;;;;;0.40;0.30;;;7.40;99.90;;;;;;4991541;28;20296;-71
2023/03/25 00:29:15;;;;;;;0.40;0.40;;;7.40;99.90;;;;;;4991504;28;20331;-69
2023/03/25 00:31:43;;;;;;;0.30;0.20;;;7.40;99.90;;;;;;4990806;28;20229;-70
2023/03/25 00:34:13;;;;;;;0.30;0.20;;;7.30;99.90;;;;;;4992148;28;20276;-70
2023/03/25 00:36:40;;;;;;;0.30;0.20;;;7.30;99.90;;;;;;4991555;28;20699;-71
2023/03/25 00:39:10;;;;;;;0.40;0.30;;;7.20;99.90;;;;;;4991673;28;20206;-71
2023/03/25 00:41:40;;;;;;;0.30;0.30;;;7.10;99.90;;;;;;4986792;28;20256;-69
2023/03/25 00:44:07;;;;;;;0.40;0.30;;;7.20;99.90;;;;;;4991229;28;20568;-70
2023/03/25 00:50:17;;;;;;;0.38;0.35;;;7.20;99.90;;;;;;4985959;28;20264;-70
2023/03/25 00:52:43;;;;;;;0.30;0.30;;;7.10;99.90;;;;;;4988653;28;20289;-70
2023/03/25 00:55:32;;;;;;;1.80;0.50;;;7.10;99.90;;;;;;4988142;28;20202;-69
2023/03/25 00:57:58;;;;;;;0.30;0.20;;;7.00;99.90;;;;;;4987987;28;20695;-70
2023/03/25 01:00:26;;;;;;;0.50;0.30;;;7.00;99.90;;;;;;4986956;28;20226;-69
2023/03/25 01:14:02;;;;;;;0.40;0.40;;;7.00;99.90;;;;;;4989877;28;20192;-69
2023/03/25 01:16:31;;;;;;;1.48;0.50;;;7.00;99.90;;;;;;4988604;28;21007;-68
2023/03/25 01:18:58;;;;;;;0.32;0.32;;;7.00;99.90;;;;;;4988691;28;20305;-69
2023/03/25 01:25:20;;;;;;;0.30;0.20;;;7.00;99.90;;;;;;4990025;28;20200;-70
2023/03/25 01:27:47;;;;;;;0.50;0.40;;;6.90;99.90;;;;;;4988157;28;20598;-70
2023/03/25 01:30:16;;;;;;;0.60;0.45;;;7.00;99.90;;;;;;4987420;28;20240;-69
2023/03/25 01:36:24;;;;;;;0.70;0.70;;;7.10;99.90;;;;;;4989037;28;20260;-69
2023/03/25 01:38:52;;;;;;;0.50;0.50;;;7.20;99.90;;;;;;4988463;28;20198;-69
2023/03/25 01:41:18;;;;;;;0.80;0.80;;;7.10;99.90;;;;;;4988580;28;20233;-68
2023/03/25 01:44:01;;;;;;;0.30;0.20;;;7.10;99.90;;;;;;4989345;28;20194;-69
2023/03/25 01:46:30;;;;;;;0.50;0.50;;;7.00;99.90;;;;;;4989014;28;20234;-69
2023/03/25 01:48:58;;;;;;;0.60;0.30;;;7.10;99.90;;;;;;4987570;28;20244;-68
2023/03/25 01:51:29;;;;;;;0.30;0.20;;;7.20;99.90;;;;;;4988445;28;20253;-69
2023/03/25 01:57:42;;;;;;;0.30;0.20;;;7.10;99.90;;;;;;4987853;28;20186;-69
2023/03/25 02:00:11;;;;;;;1.40;0.50;;;7.20;99.90;;;;;;4987574;28;20209;-69
2023/03/25 02:02:39;;;;;;;0.40;0.20;;;7.20;99.90;;;;;;4989068;28;20252;-69
2023/03/25 02:05:10;;;;;;;0.50;0.40;;;7.10;99.90;;;;;;4987290;28;20990;-71
2023/03/25 02:07:41;;;;;;;0.30;0.20;;;7.20;99.90;;;;;;4988906;28;20225;-69
2023/03/25 02:10:11;;;;;;;0.30;0.20;;;7.30;99.90;;;;;;4987291;28;20234;-69
2023/03/25 02:12:39;;;;;;;0.77;0.77;;;7.20;99.90;;;;;;4988171;28;20205;-69
2023/03/25 02:26:48;;;;;;;0.30;0.25;;;7.20;99.90;;;;;;4985087;28;20218;-69
2023/03/25 02:29:28;;;;;;;1.35;0.40;;;7.20;99.90;;;;;;4986675;28;20229;-68
2023/03/25 02:35:56;;;;;;;0.40;0.30;;;7.20;99.90;;;;;;4969934;28;20297;-69
2023/03/25 02:38:36;;;;;;;0.55;0.40;;;7.20;99.90;;;;;;4983859;28;20214;-69
2023/03/25 02:44:53;;;;;;;0.40;0.30;;;7.20;99.90;;;;;;4987341;28;20193;-70
2023/03/25 02:47:24;;;;;;;0.50;0.50;;;7.20;99.90;;;;;;4987717;28;20238;-70
2023/03/25 02:49:57;;;;;;;0.50;0.30;;;7.10;99.90;;;;;;4987065;28;20251;-70
2023/03/25 02:53:00;;;;;;;0.30;0.30;;;7.00;99.90;;;;;;4987616;28;20280;-70
2023/03/25 02:55:32;;;;;;;0.50;0.30;;;7.00;99.90;;;;;;4986372;28;21066;-70
2023/03/25 03:05:26;;;;;;;1.70;1.45;;;6.90;99.90;;;;;;4987554;28;20568;-71
2023/03/25 03:08:05;;;;;;;0.40;0.30;;;6.90;99.90;;;;;;4987182;28;20218;-70
2023/03/25 03:18:25;;;;;;;0.30;0.20;;;6.70;99.90;;;;;;4985911;28;20644;-69
2023/03/25 03:20:59;;;;;;;0.68;0.30;;;6.70;99.90;;;;;;4986660;28;20225;-70
2023/03/25 03:23:32;;;;;;;0.30;0.20;;;6.60;99.90;;;;;;4987450;28;20198;-69
2023/03/25 03:29:46;;;;;;;0.93;0.65;;;6.60;99.90;;;;;;4986517;28;20308;-70
2023/03/25 03:32:19;;;;;;;0.30;0.20;;;6.50;99.90;;;;;;4986451;28;20676;-70
2023/03/25 03:42:10;;;;;;;0.30;0.20;;;6.50;99.90;;;;;;4986451;28;20217;-69
2023/03/25 03:48:25;;;;;;;0.30;0.20;;;6.50;99.90;;;;;;4985345;28;20193;-70
2023/03/25 03:50:56;;;;;;;0.95;0.40;;;6.40;99.90;;;;;;4985872;28;20236;-70
2023/03/25 03:53:29;;;;;;;0.30;0.20;;;6.40;99.90;;;;;;4988088;28;20202;-70
2023/03/25 03:56:02;;;;;;;0.30;0.20;;;6.40;99.90;;;;;;4987112;28;20225;-70
2023/03/25 04:02:23;;;;;;;0.30;0.20;;;6.40;99.90;;;;;;4986013;28;20194;-70
2023/03/25 04:04:52;;;;;;;0.30;0.20;;;6.40;99.90;;;;;;4987308;28;20996;-69
2023/03/25 04:07:23;;;;;;;0.30;0.20;;;6.30;99.90;;;;;;4987974;28;20259;-71
2023/03/25 04:09:57;;;;;;;0.50;0.40;;;6.30;99.90;;;;;;4986480;28;20571;-69
2023/03/25 04:12:27;;;;;;;0.40;0.30;;;6.40;99.90;;;;;;4987526;28;20225;-69
2023/03/25 04:48:22;;;;;;;0.30;0.20;;;6.10;99.90;;;;;;4984373;28;20202;-70
2023/03/25 04:50:50;;;;;;;0.30;0.20;;;6.00;99.90;;;;;;4987293;28;20224;-69
2023/03/25 05:00:40;;;;;;;0.30;0.20;;;6.00;99.90;;;;;;4986060;28;20582;-71
2023/03/25 05:03:10;;;;;;;0.30;0.20;;;6.00;99.90;;;;;;4987644;28;20193;-69
2023/03/25 05:06:03;;;;;;;0.40;0.20;;;6.00;99.90;;;;;;4990871;28;20201;-69
2023/03/25 05:08:30;;;;;;;0.30;0.20;;;6.00;99.90;;;;;;4989547;28;20285;-68
2023/03/25 05:10:56;;;;;;;0.40;0.32;;;6.00;99.90;;;;;;4989488;28;20304;-69
2023/03/25 05:13:23;;;;;;;0.40;0.40;;;6.00;99.90;;;;;;4990871;28;20206;-68
2023/03/25 05:49:36;;;;;;;4.32;0.40;;;6.50;99.90;;;;;;4986972;28;20233;-68
2023/03/25 05:52:02;;;;;;;0.30;0.20;;;6.60;99.90;;;;;;4989393;28;20230;-69
2023/03/25 05:54:29;;;;;;;0.38;0.38;;;6.50;99.90;;;;;;4989425;28;20207;-70
2023/03/25 06:00:31;;;;;;;0.50;0.40;;;6.60;99.90;;;;;;4988948;28;20210;-69
2023/03/25 06:02:59;;;;;;;0.30;0.20;;;6.60;99.90;;;;;;4989147;28;20205;-69
2023/03/25 06:05:28;;;;;;;0.30;0.20;;;6.60;99.90;;;;;;4989596;28;20233;-69
2023/03/25 06:07:56;;;;;;;0.30;0.20;;;6.60;99.90;;;;;;4990039;28;20213;-70
2023/03/25 06:25:46;;;;;;;0.30;0.30;;;6.70;99.90;;;;;;4988046;28;20190;-69
2023/03/25 06:28:17;;;;;;;0.77;0.77;;;6.70;99.90;;;;;;4988133;28;20205;-69
2023/03/25 06:31:17;;;;;;;0.30;0.20;;;6.70;99.90;;;;;;4989027;28;20238;-70
2023/03/25 06:33:45;;;;;;;0.30;0.30;;;6.80;99.90;;;;;;4988967;28;20198;-69
2023/03/25 06:36:14;;;;;;;0.70;0.50;;;6.80;99.90;;;;;;4988135;28;20738;-69
2023/03/25 06:53:28;;;;;;;0.60;0.45;;;6.90;99.90;;;;;;4988729;28;20202;-69
2023/03/25 06:55:56;;;;;;;1.15;1.15;;;6.90;99.90;;;;;;4988055;28;20230;-69
2023/03/25 07:05:36;;;;;;;1.48;0.30;;;7.20;99.90;;;;;;4988121;28;20220;-69
2023/03/25 07:08:03;;;;;;;1.00;0.30;;;7.30;99.90;;;;;;4987735;28;20198;-70
2023/03/25 07:10:31;;;;;;;0.50;0.50;;;7.30;99.90;;;;;;4988157;28;20246;-70
2023/03/25 07:13:13;;;;;;;0.30;0.30;;;7.30;99.90;;;;;;4988687;28;20202;-70
2023/03/25 07:15:41;;;;;;;0.40;0.40;;;7.50;99.90;;;;;;4986559;28;20230;-70
2023/03/25 09:27:48;;;;;;;0.30;0.22;;;7.80;99.90;;;;;;4989972;28;20257;-69
2023/03/25 09:30:15;;;;;;;0.82;0.73;;;8.10;99.90;;;;;;4988588;28;20221;-71
2023/03/25 09:32:43;;;;;;;0.30;0.20;;;8.50;99.90;;;;;;4990333;28;20194;-73
2023/03/25 09:35:10;;;;;;;0.50;0.50;;;8.30;99.90;;;;;;4990250;28;20214;-72
2023/03/25 09:37:37;;;;;;;0.30;0.20;;;8.50;99.90;;;;;;4989810;28;20201;-70
2023/03/25 09:40:05;;;;;;;0.88;0.82;;;8.50;99.90;;;;;;4989229;28;20531;-72
2023/03/25 10:08:29;;;;;;;0.30;0.30;;;9.50;99.90;;;;;;4971381;28;23334;-68
2023/03/25 10:11:04;;;;;;;0.30;0.30;;;9.60;99.90;;;;;;4985852;28;20754;-72
2023/03/25 10:13:41;;;;;;;0.40;0.20;;;9.60;99.90;;;;;;4985084;28;20655;-70
2023/03/25 10:16:19;;;;;;;0.30;0.20;;;9.70;99.90;;;;;;4989958;28;20699;-69
2023/03/25 10:18:59;;;;;;;0.30;0.20;;;9.80;99.90;;;;;;4989428;28;20627;-70
2023/03/25 10:21:32;;;;;;;0.40;0.40;;;9.80;99.90;;;;;;4989311;28;21256;-70
2023/03/25 10:24:13;;;;;;;0.30;0.30;;;9.80;99.90;;;;;;4990148;28;20641;-70
2023/03/25 10:26:45;;;;;;;0.87;0.40;;;9.70;99.90;;;;;;4989698;28;20674;-69
2023/03/25 10:29:14;;;;;;;0.70;0.57;;;9.70;99.90;;;;;;4986090;28;21226;-70
2023/03/25 10:31:49;;;;;;;0.43;0.40;;;9.70;99.90;;;;;;4988215;28;20656;-70
2023/03/25 10:34:19;;;;;;;2.50;0.60;;;9.70;99.90;;;;;;4989718;28;20644;-69
2023/03/25 10:36:49;;;;;;;0.30;0.20;;;9.80;99.90;;;;;;4989797;28;20756;-70
2023/03/25 10:39:19;;;;;;;0.40;0.40;;;10.20;99.90;;;;;;4989212;28;20628;-70
2023/03/25 10:41:51;;;;;;;0.30;0.20;;;10.30;99.90;;;;;;4989464;28;20760;-69
2023/03/25 10:44:20;;;;;;;0.30;0.20;;;10.60;99.90;;;;;;4989431;28;20629;-71
2023/03/25 16:51:37;;;;;;;1.17;0.50;;;11.30;72.70;;;;;;4985620;28;21300;-69
2023/03/25 16:54:09;;;;;;;0.60;0.47;;;11.20;73.40;;;;;;4986967;28;20625;-69
2023/03/25 16:56:40;;;;;;;0.30;0.30;;;11.10;73.70;;;;;;4984569;28;21020;-70
2023/03/25 16:59:16;;;;;;;0.30;0.30;;;11.10;74.50;;;;;;4986267;28;20632;-70
2023/03/25 17:01:52;;;;;;;0.70;0.70;;;11.10;75.80;;;;;;4997055;28;20655;-69
2023/03/25 17:04:21;;;;;;;0.30;0.23;;;11.10;74.50;;;;;;4991509;28;20628;-69
2023/03/25 17:06:53;;;;;;;1.50;0.30;;;11.00;75.40;;;;;;4990701;28;20681;-70
